Time;durP1;ratioP1;P1;durP2;ratioP2;P2;SDS_P1;SDS_P2;PMS_P1;PMS_P2;Temp;Humidity;BMP_temperature;BMP_pressure;BME280_temperature;BME280_humidity;BME280_pressure;Samples;Min_cycle;Max_cycle;Signal;HPM_P1;HPM_P2
2022/12/30 00:00:07;;;;;;;17.23;7.35;;;10.30;99.90;;;;;;5054173;28;20021;-64
2022/12/30 00:02:34;;;;;;;22.23;8.55;;;10.30;99.90;;;;;;5054345;28;20040;-63
2022/12/30 00:05:00;;;;;;;16.05;8.73;;;10.30;99.90;;;;;;5054500;28;20393;-63
2022/12/30 00:07:26;;;;;;;15.57;8.32;;;10.30;99.90;;;;;;5054021;28;20025;-64
2022/12/30 00:09:53;;;;;;;17.20;9.18;;;10.30;99.90;;;;;;5054393;28;20037;-63
2022/12/30 00:34:36;;;;;;;13.63;7.90;;;10.30;99.90;;;;;;5054172;28;20095;-63
2022/12/30 00:37:02;;;;;;;12.90;7.45;;;10.30;99.90;;;;;;5053919;28;20021;-63
2022/12/30 00:39:28;;;;;;;13.23;7.05;;;10.30;99.90;;;;;;5054205;28;20040;-63
2022/12/30 00:44:38;;;;;;;11.57;5.78;;;10.30;99.90;;;;;;5053281;28;20028;-63
2022/12/30 00:47:05;;;;;;;9.80;4.90;;;10.20;99.90;;;;;;5053660;28;20029;-64
2022/12/30 00:57:43;;;;;;;;;;;10.20;99.90;;;;;;5053978;28;20091;-64
2022/12/30 01:00:11;;;;;;;8.45;3.72;;;10.20;99.90;;;;;;5053396;28;19923;-63
2022/12/30 01:02:36;;;;;;;11.80;3.78;;;10.20;99.90;;;;;;5053275;28;20107;-63
2022/12/30 01:05:03;;;;;;;7.50;3.20;;;10.20;99.90;;;;;;5053609;28;20528;-64
2022/12/30 01:07:29;;;;;;;3.95;2.42;;;10.20;99.90;;;;;;5053408;28;20024;-63
2022/12/30 01:09:56;;;;;;;8.57;3.00;;;10.20;99.90;;;;;;5052783;28;20049;-63
2022/12/30 01:12:22;;;;;;;6.10;2.40;;;10.20;99.90;;;;;;5053436;28;20032;-63
2022/12/30 01:14:50;;;;;;;8.55;2.70;;;10.20;99.90;;;;;;5053073;28;20614;-63
2022/12/30 01:17:32;;;;;;;6.75;1.95;;;10.20;99.90;;;;;;5053096;28;20452;-63
2022/12/30 01:19:58;;;;;;;13.43;10.32;;;10.20;99.90;;;;;;5053187;28;20505;-63
2022/12/30 01:22:24;;;;;;;5.60;2.25;;;10.20;99.90;;;;;;5052924;28;20060;-64
2022/12/30 01:24:49;;;;;;;5.35;2.20;;;10.20;99.90;;;;;;5052816;28;20063;-64
2022/12/30 01:27:15;;;;;;;3.92;2.10;;;10.20;99.90;;;;;;5052488;28;20025;-64
2022/12/30 01:29:42;;;;;;;4.00;1.80;;;10.20;99.90;;;;;;5053221;28;20018;-64
2022/12/30 01:32:17;;;;;;;7.55;1.92;;;10.20;99.90;;;;;;5052739;28;20025;-64
2022/12/30 01:34:43;;;;;;;4.07;1.63;;;10.20;99.90;;;;;;5051711;28;20029;-63
2022/12/30 01:37:09;;;;;;;5.97;1.90;;;10.20;99.90;;;;;;5052647;28;20116;-64
2022/12/30 01:39:35;;;;;;;4.78;1.73;;;10.20;99.90;;;;;;5052614;28;20025;-64
2022/12/30 01:42:02;;;;;;;4.38;1.88;;;10.20;99.90;;;;;;5052192;28;20090;-63
2022/12/30 01:44:48;;;;;;;6.43;1.70;;;10.10;99.90;;;;;;5052992;28;20029;-64
2022/12/30 01:47:53;;;;;;;4.63;1.85;;;10.10;99.90;;;;;;5052472;28;20103;-64
2022/12/30 01:50:50;;;;;;;5.72;1.80;;;10.10;99.90;;;;;;5051445;28;20128;-64
2022/12/30 01:53:20;;;;;;;4.85;1.52;;;10.10;99.90;;;;;;5052369;28;20033;-64
2022/12/30 01:55:53;;;;;;;4.20;1.85;;;10.10;99.90;;;;;;5052106;28;20440;-63
2022/12/30 01:58:29;;;;;;;4.53;2.00;;;10.10;99.90;;;;;;5052556;28;20021;-63
2022/12/30 02:00:55;;;;;;;4.45;1.70;;;10.10;99.90;;;;;;5052133;28;20389;-63
2022/12/30 02:03:20;;;;;;;5.95;2.03;;;10.10;99.90;;;;;;5052746;28;20032;-63
2022/12/30 02:05:47;;;;;;;4.95;1.63;;;10.10;99.90;;;;;;5052393;28;20421;-64
2022/12/30 02:08:16;;;;;;;3.65;1.70;;;10.10;99.90;;;;;;5052080;28;20025;-64
2022/12/30 02:10:46;;;;;;;5.20;1.45;;;10.10;99.90;;;;;;5051870;28;20041;-63
2022/12/30 02:13:15;;;;;;;4.93;1.65;;;10.10;99.90;;;;;;5052052;28;20100;-63
2022/12/30 02:16:20;;;;;;;3.50;1.30;;;10.00;99.90;;;;;;5052092;28;20500;-63
2022/12/30 02:18:55;;;;;;;;;;;10.00;99.90;;;;;;5052553;28;20047;-63
2022/12/30 02:21:40;;;;;;;2.45;1.30;;;10.00;99.90;;;;;;5052273;28;19923;-63
2022/12/30 02:24:26;;;;;;;5.13;1.35;;;10.00;99.90;;;;;;5051781;28;20017;-64
2022/12/30 02:27:13;;;;;;;3.35;1.40;;;10.10;99.90;;;;;;5051351;28;20516;-63
2022/12/30 02:30:00;;;;;;;5.57;1.45;;;10.10;99.90;;;;;;5052249;28;20090;-63
2022/12/30 02:32:33;;;;;;;3.92;1.50;;;10.10;99.90;;;;;;5052254;28;20029;-64
2022/12/30 02:35:24;;;;;;;3.70;1.08;;;10.10;99.90;;;;;;5051980;28;20497;-63
2022/12/30 02:38:20;;;;;;;4.55;1.60;;;10.00;99.90;;;;;;5051997;28;20083;-64
2022/12/30 02:47:02;;;;;;;5.18;1.30;;;10.00;99.90;;;;;;5055049;28;20033;-63
2022/12/30 02:49:30;;;;;;;3.40;1.25;;;10.10;99.90;;;;;;5055897;28;20033;-63
2022/12/30 02:52:18;;;;;;;4.22;1.50;;;10.10;99.90;;;;;;5055845;28;20470;-63
2022/12/30 02:54:47;;;;;;;3.05;1.20;;;10.10;99.90;;;;;;5055414;28;20512;-63
2022/12/30 02:57:33;;;;;;;4.15;1.38;;;10.10;99.90;;;;;;5055666;28;20489;-63
2022/12/30 03:06:39;;;;;;;2.92;1.20;;;10.10;99.90;;;;;;5055752;28;20512;-63
2022/12/30 03:09:36;;;;;;;6.15;1.30;;;10.10;99.90;;;;;;5055016;28;20029;-63
2022/12/30 03:12:04;;;;;;;4.15;1.20;;;10.10;99.90;;;;;;5055339;28;20493;-65
2022/12/30 03:14:45;;;;;;;3.38;1.20;;;10.10;99.90;;;;;;5055829;28;20032;-63
2022/12/30 03:17:19;;;;;;;6.32;1.30;;;10.00;99.90;;;;;;5055694;28;20028;-64
2022/12/30 03:19:50;;;;;;;3.50;1.10;;;10.00;99.90;;;;;;5055304;28;20108;-63
2022/12/30 03:28:10;;;;;;;2.55;1.10;;;10.00;99.90;;;;;;5033198;28;20157;-63
2022/12/30 03:30:42;;;;;;;2.13;1.10;;;10.00;99.90;;;;;;5049424;28;20041;-63
2022/12/30 03:33:08;;;;;;;4.03;1.13;;;10.00;99.90;;;;;;5033447;28;20572;-63
2022/12/30 03:35:39;;;;;;;4.05;1.23;;;10.00;99.90;;;;;;5032694;28;20033;-63
2022/12/30 03:38:08;;;;;;;2.35;1.08;;;10.10;99.90;;;;;;5032428;28;20033;-64
2022/12/30 03:40:38;;;;;;;2.30;1.10;;;10.00;99.90;;;;;;5032666;28;20092;-64
2022/12/30 03:43:06;;;;;;;3.65;1.00;;;10.00;99.90;;;;;;5033088;28;20032;-63
2022/12/30 03:45:31;;;;;;;2.15;1.13;;;10.00;99.90;;;;;;5049245;28;20100;-64
2022/12/30 03:47:57;;;;;;;3.53;1.30;;;10.00;99.90;;;;;;5032722;28;20108;-64
2022/12/30 03:50:23;;;;;;;3.97;1.25;;;10.00;99.90;;;;;;5033096;28;20133;-63
2022/12/30 03:52:49;;;;;;;4.25;1.23;;;10.00;99.90;;;;;;5032353;28;20041;-63
2022/12/30 03:55:15;;;;;;;3.30;1.30;;;9.90;99.90;;;;;;5032450;28;20021;-64
2022/12/30 03:57:40;;;;;;;4.97;1.42;;;10.00;99.90;;;;;;5032139;28;20041;-63
2022/12/30 04:00:08;;;;;;;2.70;1.20;;;10.00;99.90;;;;;;5032420;28;20478;-63
2022/12/30 04:02:34;;;;;;;2.85;1.10;;;9.90;99.90;;;;;;5032463;28;20033;-63
2022/12/30 04:05:00;;;;;;;6.90;1.50;;;10.00;99.90;;;;;;5034698;28;20057;-64
2022/12/30 04:07:26;;;;;;;3.30;1.33;;;10.00;99.90;;;;;;5034139;28;20100;-64
2022/12/30 04:09:51;;;;;;;3.25;1.10;;;9.90;99.90;;;;;;5040573;28;20045;-63
2022/12/30 04:12:17;;;;;;;3.35;1.30;;;10.00;99.90;;;;;;5054357;28;20021;-63
2022/12/30 04:14:43;;;;;;;2.72;1.20;;;10.00;99.90;;;;;;5054181;28;20037;-63
2022/12/30 04:17:08;;;;;;;3.05;1.30;;;10.00;99.90;;;;;;5055166;28;20159;-64
2022/12/30 04:19:34;;;;;;;4.78;1.20;;;10.00;99.90;;;;;;5053770;28;20021;-66
2022/12/30 04:22:00;;;;;;;2.85;1.25;;;10.10;99.90;;;;;;5054071;28;20581;-63
2022/12/30 04:24:26;;;;;;;5.50;4.15;;;10.00;99.90;;;;;;5054235;28;20031;-63
2022/12/30 04:26:51;;;;;;;5.45;1.75;;;10.00;99.90;;;;;;5054045;28;20031;-63
2022/12/30 04:29:17;;;;;;;3.47;1.50;;;10.00;99.90;;;;;;5053950;28;20108;-63
2022/12/30 04:31:43;;;;;;;2.08;1.38;;;10.00;99.90;;;;;;5054359;28;20108;-63
2022/12/30 04:34:09;;;;;;;4.60;1.50;;;10.00;99.90;;;;;;5053894;28;20028;-63
2022/12/30 04:36:35;;;;;;;3.13;1.40;;;10.00;99.90;;;;;;5053451;28;20029;-64
2022/12/30 04:39:00;;;;;;;5.82;1.60;;;10.00;99.90;;;;;;5054313;28;20108;-63
2022/12/30 04:41:26;;;;;;;2.15;1.23;;;10.00;99.90;;;;;;5053761;28;20468;-63
2022/12/30 04:43:52;;;;;;;3.20;1.17;;;10.00;99.90;;;;;;5053847;28;20025;-64
2022/12/30 04:46:17;;;;;;;3.40;1.30;;;10.00;99.90;;;;;;5053779;28;20487;-63
2022/12/30 04:48:43;;;;;;;2.88;1.40;;;10.00;99.90;;;;;;5053580;28;20025;-63
2022/12/30 04:51:09;;;;;;;3.85;1.42;;;10.00;99.90;;;;;;5053362;28;20028;-64
2022/12/30 04:53:34;;;;;;;5.75;1.40;;;10.00;99.90;;;;;;5053906;28;20032;-64
2022/12/30 04:56:00;;;;;;;2.20;1.27;;;10.00;99.90;;;;;;5053515;28;20388;-63
2022/12/30 04:58:26;;;;;;;2.85;1.30;;;10.00;99.90;;;;;;5053588;28;20354;-63
2022/12/30 05:00:52;;;;;;;3.90;1.38;;;10.00;99.90;;;;;;5053200;28;20036;-63
2022/12/30 05:03:18;;;;;;;5.63;1.33;;;10.00;99.90;;;;;;5053730;28;20032;-64
2022/12/30 05:05:44;;;;;;;2.13;1.20;;;10.10;99.90;;;;;;5053116;28;20389;-64
2022/12/30 05:08:10;;;;;;;2.47;1.20;;;10.10;99.90;;;;;;5053284;28;20021;-63
2022/12/30 05:10:38;;;;;;;1.70;1.10;;;10.20;99.90;;;;;;5052894;28;20056;-63
2022/12/30 05:13:04;;;;;;;3.42;1.35;;;10.20;99.90;;;;;;5053049;28;20025;-63
2022/12/30 05:15:30;;;;;;;3.47;1.60;;;10.20;99.90;;;;;;5053013;28;20060;-63
2022/12/30 05:17:55;;;;;;;2.30;1.35;;;10.20;99.90;;;;;;5053378;28;20479;-63
2022/12/30 05:20:22;;;;;;;4.30;1.38;;;10.20;99.90;;;;;;5052870;28;20432;-63
2022/12/30 05:22:47;;;;;;;4.78;1.38;;;10.20;99.90;;;;;;5052911;28;20036;-63
2022/12/30 05:27:57;;;;;;;3.28;1.23;;;10.20;99.90;;;;;;5053374;28;20036;-63
2022/12/30 05:30:23;;;;;;;2.08;1.40;;;10.30;99.90;;;;;;5052890;28;20025;-63
2022/12/30 05:32:49;;;;;;;2.38;1.30;;;10.20;99.90;;;;;;5052539;28;20039;-63
2022/12/30 05:35:15;;;;;;;5.43;1.40;;;10.20;99.90;;;;;;5053166;28;20557;-62
2022/12/30 05:37:40;;;;;;;3.13;1.48;;;10.20;99.90;;;;;;5052736;28;20013;-63
2022/12/30 05:40:07;;;;;;;2.70;1.23;;;10.20;99.90;;;;;;5052611;28;20033;-63
2022/12/30 05:42:33;;;;;;;1.52;1.30;;;10.30;99.90;;;;;;5052490;28;20094;-63
2022/12/30 05:44:59;;;;;;;2.05;1.30;;;10.30;99.90;;;;;;5053010;28;20036;-63
2022/12/30 05:47:24;;;;;;;4.45;1.30;;;10.30;99.90;;;;;;5052186;28;20032;-63
2022/12/30 05:49:50;;;;;;;5.53;1.40;;;10.30;99.90;;;;;;5052486;28;20032;-63
2022/12/30 05:52:16;;;;;;;2.70;1.33;;;10.30;99.90;;;;;;5052386;28;20032;-63
2022/12/30 05:54:42;;;;;;;2.63;1.38;;;10.30;99.90;;;;;;5052803;28;20029;-63
2022/12/30 05:57:08;;;;;;;3.13;1.40;;;10.30;99.90;;;;;;5052694;28;20091;-63
2022/12/30 05:59:34;;;;;;;2.22;1.10;;;10.40;99.90;;;;;;5052294;28;20071;-63
2022/12/30 06:02:00;;;;;;;3.25;1.33;;;10.40;99.90;;;;;;5051830;28;20068;-63
2022/12/30 06:04:26;;;;;;;3.25;1.23;;;10.30;99.90;;;;;;5052360;28;20017;-63
2022/12/30 06:06:52;;;;;;;4.72;1.20;;;10.40;99.90;;;;;;5052197;28;20516;-63
2022/12/30 06:09:18;;;;;;;2.28;1.10;;;10.40;99.90;;;;;;5052241;28;20053;-63
2022/12/30 06:11:44;;;;;;;2.25;1.10;;;10.40;99.90;;;;;;5052248;28;20028;-63
2022/12/30 06:14:12;;;;;;;2.63;1.10;;;10.50;99.90;;;;;;5051872;28;20596;-63
2022/12/30 06:16:37;;;;;;;4.65;1.10;;;10.50;99.90;;;;;;5050518;28;20036;-63
2022/12/30 06:19:03;;;;;;;2.25;1.02;;;10.60;99.90;;;;;;5052635;28;20025;-63
2022/12/30 06:21:29;;;;;;;4.75;1.35;;;10.60;99.90;;;;;;5051696;28;20044;-63
2022/12/30 06:23:55;;;;;;;3.95;1.50;;;10.60;99.90;;;;;;5052158;28;20028;-63
2022/12/30 06:26:21;;;;;;;4.68;1.35;;;10.60;99.90;;;;;;5052119;28;20516;-63
2022/12/30 06:28:46;;;;;;;4.63;1.40;;;10.60;99.90;;;;;;5051802;28;20100;-63
2022/12/30 06:31:12;;;;;;;5.03;1.30;;;10.50;99.90;;;;;;5051661;28;20060;-63
2022/12/30 06:33:38;;;;;;;3.33;1.30;;;10.60;99.90;;;;;;5052438;28;20079;-63
2022/12/30 06:36:04;;;;;;;2.15;1.25;;;10.60;99.90;;;;;;5052030;28;20080;-63
2022/12/30 06:38:30;;;;;;;3.53;1.33;;;10.60;99.90;;;;;;5052083;28;20037;-63
2022/12/30 06:40:55;;;;;;;3.35;1.35;;;10.50;99.90;;;;;;5051853;28;20071;-63
2022/12/30 06:43:21;;;;;;;3.90;1.30;;;10.60;99.90;;;;;;5051931;28;20477;-63
2022/12/30 06:45:47;;;;;;;2.50;1.20;;;10.60;99.90;;;;;;5051969;28;20036;-63
2022/12/30 06:48:12;;;;;;;2.55;1.50;;;10.60;99.90;;;;;;5051888;28;20087;-63
2022/12/30 06:50:38;;;;;;;2.28;1.50;;;10.60;99.90;;;;;;5051783;28;20067;-63
2022/12/30 06:53:05;;;;;;;2.80;1.48;;;10.70;99.90;;;;;;5052183;28;20086;-63
2022/12/30 06:55:31;;;;;;;4.03;1.30;;;10.70;99.90;;;;;;5051690;28;20037;-63
2022/12/30 06:57:56;;;;;;;2.75;1.40;;;10.70;99.90;;;;;;5051578;28;20152;-63
2022/12/30 07:00:22;;;;;;;4.10;1.60;;;10.70;99.90;;;;;;5051463;28;20150;-63
2022/12/30 07:02:48;;;;;;;5.25;1.50;;;10.70;99.90;;;;;;5051790;28;20037;-63
2022/12/30 07:05:14;;;;;;;4.10;1.20;;;10.70;99.90;;;;;;5051940;28;20025;-63
2022/12/30 07:07:40;;;;;;;3.72;1.50;;;10.70;99.90;;;;;;5051743;28;20099;-63
2022/12/30 07:10:05;;;;;;;3.08;1.33;;;10.70;99.90;;;;;;5051499;28;20171;-63
2022/12/30 07:12:31;;;;;;;3.13;1.30;;;10.80;99.90;;;;;;5051569;28;20397;-63
2022/12/30 07:14:57;;;;;;;2.58;1.45;;;10.80;99.90;;;;;;5051123;28;20031;-63
2022/12/30 07:17:22;;;;;;;3.20;1.52;;;10.80;99.90;;;;;;5051979;28;20440;-63
2022/12/30 07:19:48;;;;;;;3.42;1.35;;;10.90;99.90;;;;;;5051573;28;20063;-63
2022/12/30 07:22:15;;;;;;;3.88;1.60;;;10.80;99.90;;;;;;5051358;28;20036;-63
2022/12/30 07:24:42;;;;;;;3.33;2.33;;;10.90;99.90;;;;;;5051323;28;20051;-63
2022/12/30 07:27:11;;;;;;;3.83;1.95;;;10.80;99.90;;;;;;5051429;28;20398;-64
2022/12/30 07:29:38;;;;;;;2.55;1.55;;;10.80;99.90;;;;;;5051367;28;20029;-64
2022/12/30 07:32:07;;;;;;;3.97;1.50;;;10.80;99.90;;;;;;5051597;28;20029;-64
2022/12/30 07:34:36;;;;;;;2.88;1.50;;;10.80;99.90;;;;;;5055112;28;20039;-64
2022/12/30 07:37:04;;;;;;;4.13;1.70;;;10.80;99.90;;;;;;5054971;28;20054;-63
2022/12/30 07:39:30;;;;;;;3.63;1.42;;;10.90;99.90;;;;;;5055015;28;20029;-63
2022/12/30 07:41:56;;;;;;;3.75;1.70;;;10.80;99.90;;;;;;5054756;28;20072;-63
2022/12/30 07:44:22;;;;;;;4.07;1.70;;;10.80;99.90;;;;;;5054609;28;20056;-63
2022/12/30 07:46:48;;;;;;;2.53;1.90;;;10.90;99.90;;;;;;5055074;28;20481;-63
2022/12/30 07:49:13;;;;;;;3.53;1.90;;;10.90;99.90;;;;;;5054672;28;20052;-64
2022/12/30 07:51:39;;;;;;;2.30;1.40;;;11.00;99.90;;;;;;5054791;28;20473;-63
2022/12/30 07:54:05;;;;;;;4.05;1.60;;;11.10;99.90;;;;;;5054585;28;20166;-64
2022/12/30 07:56:31;;;;;;;2.75;1.40;;;11.10;99.90;;;;;;5055045;28;20443;-63
2022/12/30 07:58:58;;;;;;;3.92;1.50;;;11.10;99.90;;;;;;5054305;28;20023;-64
2022/12/30 08:01:24;;;;;;;3.35;1.48;;;11.10;99.90;;;;;;5054412;28;20037;-63
2022/12/30 08:03:50;;;;;;;2.95;1.67;;;11.10;99.90;;;;;;5054582;28;20540;-63
2022/12/30 08:06:18;;;;;;;4.47;1.70;;;11.10;99.90;;;;;;5054900;28;20048;-64
2022/12/30 08:08:44;;;;;;;4.35;1.80;;;11.10;99.90;;;;;;5054386;28;20036;-63
2022/12/30 08:11:12;;;;;;;2.90;1.65;;;11.10;99.90;;;;;;5054079;28;20053;-64
2022/12/30 08:13:40;;;;;;;3.63;1.50;;;11.10;99.90;;;;;;5054259;28;20076;-63
2022/12/30 08:16:11;;;;;;;2.58;1.50;;;11.10;99.90;;;;;;5054328;28;20021;-64
2022/12/30 08:18:37;;;;;;;2.97;1.60;;;11.10;99.90;;;;;;5054209;28;20059;-63
2022/12/30 08:21:05;;;;;;;2.80;1.52;;;11.10;99.90;;;;;;5053865;28;20061;-63
2022/12/30 08:23:32;;;;;;;3.47;1.60;;;11.20;99.90;;;;;;5054621;28;20092;-64
2022/12/30 08:26:06;;;;;;;4.45;1.77;;;11.20;99.90;;;;;;5053793;28;20025;-64
2022/12/30 08:28:31;;;;;;;;;;;11.20;99.90;;;;;;5054114;28;20052;-63
2022/12/30 08:30:57;;;;;;;2.30;1.45;;;11.20;99.90;;;;;;5053973;28;19913;-64
2022/12/30 08:33:23;;;;;;;4.50;1.83;;;11.20;99.90;;;;;;5053912;28;20028;-64
2022/12/30 08:35:49;;;;;;;3.25;1.67;;;11.30;99.90;;;;;;5053954;28;20137;-64
2022/12/30 08:38:14;;;;;;;2.20;1.60;;;11.30;99.90;;;;;;5054113;28;20025;-64
2022/12/30 08:40:40;;;;;;;4.63;1.80;;;11.40;99.90;;;;;;5053756;28;20075;-63
2022/12/30 08:43:06;;;;;;;3.72;1.90;;;11.40;99.90;;;;;;5053086;28;20029;-64
2022/12/30 08:45:31;;;;;;;3.05;1.60;;;11.40;99.90;;;;;;5053943;28;20017;-64
2022/12/30 08:47:57;;;;;;;2.67;1.70;;;11.50;99.90;;;;;;5053621;28;20056;-64
2022/12/30 08:50:23;;;;;;;5.18;1.77;;;11.60;99.90;;;;;;5053632;28;20086;-63
2022/12/30 08:52:48;;;;;;;4.82;1.80;;;11.60;99.90;;;;;;5053527;28;20433;-63
2022/12/30 08:55:14;;;;;;;5.25;1.60;;;11.60;99.90;;;;;;5053737;28;20021;-63
2022/12/30 08:57:40;;;;;;;3.70;1.75;;;11.60;99.90;;;;;;5053243;28;20032;-63
2022/12/30 09:00:07;;;;;;;2.88;1.88;;;11.70;99.90;;;;;;5053437;28;20061;-64
2022/12/30 09:02:34;;;;;;;2.80;1.73;;;11.70;99.90;;;;;;5053905;28;20032;-63
2022/12/30 09:05:00;;;;;;;3.15;1.73;;;11.70;99.90;;;;;;5052991;28;20371;-64
2022/12/30 09:07:26;;;;;;;3.63;1.70;;;11.70;99.90;;;;;;5053253;28;20036;-64
2022/12/30 09:09:52;;;;;;;3.90;1.80;;;11.70;99.90;;;;;;5052516;28;20041;-64
2022/12/30 09:12:18;;;;;;;3.20;1.80;;;11.70;99.90;;;;;;5053065;28;20078;-63
2022/12/30 09:14:44;;;;;;;2.67;1.63;;;11.80;99.90;;;;;;5052865;28;20025;-63
2022/12/30 09:17:10;;;;;;;4.05;2.00;;;11.80;99.90;;;;;;5053473;28;20104;-63
2022/12/30 09:19:36;;;;;;;2.25;1.70;;;11.70;99.90;;;;;;5053003;28;20116;-63
2022/12/30 09:22:01;;;;;;;3.40;2.40;;;11.80;99.90;;;;;;5052833;28;20037;-64
2022/12/30 09:24:27;;;;;;;4.63;2.00;;;11.80;99.90;;;;;;5053092;28;20036;-63
2022/12/30 09:26:53;;;;;;;3.42;2.08;;;11.70;99.90;;;;;;5052390;28;20082;-63
2022/12/30 09:29:18;;;;;;;2.97;2.10;;;11.80;99.90;;;;;;5053006;28;20100;-63
2022/12/30 09:31:44;;;;;;;3.38;2.67;;;11.80;99.90;;;;;;5052933;28;20444;-63
2022/12/30 09:34:11;;;;;;;3.00;2.20;;;11.90;99.90;;;;;;5052684;28;20816;-63
2022/12/30 09:36:37;;;;;;;4.03;2.78;;;11.90;99.90;;;;;;5052642;28;20389;-64
2022/12/30 09:39:03;;;;;;;5.72;2.70;;;12.00;99.90;;;;;;5052316;28;20036;-64
2022/12/30 09:44:45;;;;;;;6.80;4.30;;;12.10;99.90;;;;;;5052723;28;20100;-69
2022/12/30 09:47:19;;;;;;;5.55;2.90;;;12.10;99.90;;;;;;5052524;28;20047;-64
2022/12/30 09:49:52;;;;;;;6.32;3.25;;;12.10;99.90;;;;;;5052426;28;20064;-65
2022/12/30 09:52:51;;;;;;;4.43;2.60;;;12.10;99.90;;;;;;5052404;28;20104;-64
2022/12/30 09:55:27;;;;;;;5.32;2.75;;;12.20;99.90;;;;;;5051436;28;20108;-64
2022/12/30 09:57:58;;;;;;;4.60;2.60;;;12.20;99.90;;;;;;5052308;28;20029;-64
2022/12/30 10:00:24;;;;;;;5.82;3.25;;;12.30;99.90;;;;;;5052495;28;20419;-64
2022/12/30 10:02:59;;;;;;;4.60;2.83;;;12.30;99.90;;;;;;5052117;28;20037;-64
2022/12/30 10:05:42;;;;;;;5.07;2.92;;;12.30;99.90;;;;;;5052337;28;20033;-64
2022/12/30 10:08:08;;;;;;;11.77;8.18;;;12.40;99.90;;;;;;5051951;28;20029;-64
2022/12/30 10:11:05;;;;;;;5.38;3.10;;;12.40;99.90;;;;;;5051968;28;20127;-64
2022/12/30 10:13:44;;;;;;;5.65;2.85;;;12.40;99.90;;;;;;5010330;28;20038;-64
2022/12/30 10:16:40;;;;;;;26.85;20.42;;;12.40;99.90;;;;;;5010275;28;20112;-64
2022/12/30 10:19:13;;;;;;;4.60;3.05;;;12.50;99.90;;;;;;5010360;28;20061;-64
2022/12/30 10:21:43;;;;;;;7.60;3.78;;;12.50;99.90;;;;;;5010621;28;20104;-64
2022/12/30 10:24:32;;;;;;;5.35;2.67;;;12.60;99.90;;;;;;5009783;28;20418;-64
2022/12/30 10:27:10;;;;;;;4.88;2.83;;;12.60;99.90;;;;;;5009643;28;20057;-64
2022/12/30 10:29:39;;;;;;;4.70;2.83;;;12.70;99.90;;;;;;5010173;28;20067;-64
2022/12/30 10:32:22;;;;;;;5.00;2.72;;;12.70;99.90;;;;;;5010578;28;20038;-64
2022/12/30 10:34:54;;;;;;;3.03;2.70;;;12.80;99.90;;;;;;5010239;28;20037;-64
2022/12/30 10:37:31;;;;;;;5.43;3.30;;;12.80;99.90;;;;;;5009705;28;20069;-64
2022/12/30 10:39:58;;;;;;;4.72;3.22;;;12.90;99.90;;;;;;5010072;28;20022;-64
2022/12/30 10:42:46;;;;;;;3.67;3.05;;;13.00;99.90;;;;;;5010728;28;20042;-64
2022/12/30 10:45:27;;;;;;;4.78;3.38;;;13.10;99.90;;;;;;5010036;28;20044;-65
2022/12/30 10:48:14;;;;;;;4.93;3.20;;;13.20;99.90;;;;;;5010000;28;20569;-64
2022/12/30 10:50:44;;;;;;;6.50;2.88;;;13.20;99.90;;;;;;5022855;28;20095;-64
2022/12/30 10:53:19;;;;;;;7.35;3.70;;;13.20;99.90;;;;;;5031674;28;20025;-64
2022/12/30 10:55:55;;;;;;;6.65;4.97;;;13.30;99.90;;;;;;5032022;28;20021;-64
2022/12/30 10:58:38;;;;;;;6.13;4.05;;;13.40;99.90;;;;;;5032333;28;20030;-64
2022/12/30 11:01:04;;;;;;;7.53;6.50;;;13.50;99.90;;;;;;5031963;28;20461;-64
2022/12/30 11:03:30;;;;;;;4.00;3.35;;;13.60;99.90;;;;;;5031707;28;20037;-64
2022/12/30 11:05:58;;;;;;;4.78;2.55;;;14.40;99.90;;;;;;5031712;28;20080;-64
2022/12/30 11:08:28;;;;;;;4.47;3.22;;;14.80;99.90;;;;;;5035185;28;20029;-64
2022/12/30 11:11:03;;;;;;;4.07;2.83;;;15.10;99.90;;;;;;5050693;28;20048;-64
2022/12/30 11:16:14;;;;;;;5.47;2.45;;;20.90;99.90;;;;;;5055257;28;20075;-64
2022/12/30 11:18:44;;;;;;;2.55;2.30;;;20.90;99.90;;;;;;5055624;28;20025;-64
2022/12/30 11:21:11;;;;;;;4.05;2.40;;;20.40;99.90;;;;;;5055038;28;20021;-64
2022/12/30 11:23:39;;;;;;;3.80;2.38;;;19.90;99.90;;;;;;5055624;28;20044;-64
2022/12/30 11:26:21;;;;;;;2.40;2.20;;;18.70;99.90;;;;;;5055230;28;20025;-63
2022/12/30 11:29:00;;;;;;;3.05;2.22;;;19.20;99.90;;;;;;5054953;28;20543;-63
2022/12/30 11:31:41;;;;;;;3.78;2.53;;;17.30;99.90;;;;;;5055523;28;20105;-64
2022/12/30 11:34:17;;;;;;;3.13;2.45;;;16.70;99.90;;;;;;5054924;28;20386;-64
2022/12/30 11:36:44;;;;;;;4.60;2.20;;;16.20;99.90;;;;;;5054680;28;20083;-63
2022/12/30 11:39:16;;;;;;;3.20;2.53;;;15.80;99.90;;;;;;5054996;28;20029;-64
2022/12/30 11:41:50;;;;;;;2.75;2.17;;;15.70;99.90;;;;;;5054918;28;20048;-64
2022/12/30 11:44:20;;;;;;;5.28;2.60;;;15.70;99.90;;;;;;5054909;28;20444;-64
2022/12/30 11:46:55;;;;;;;4.07;2.70;;;15.60;99.90;;;;;;5055293;28;20477;-63
2022/12/30 11:49:35;;;;;;;3.80;2.50;;;15.60;99.90;;;;;;5054903;28;20025;-64
2022/12/30 11:52:07;;;;;;;5.30;2.65;;;15.70;99.90;;;;;;5054624;28;20025;-63
2022/12/30 11:54:40;;;;;;;4.07;3.30;;;15.60;99.90;;;;;;5054790;28;20096;-63
2022/12/30 11:57:17;;;;;;;5.93;3.60;;;15.60;99.90;;;;;;5054764;28;20031;-63
2022/12/30 11:59:46;;;;;;;5.85;3.10;;;15.70;99.90;;;;;;5055180;28;20053;-63
2022/12/30 12:02:25;;;;;;;3.72;2.80;;;15.80;99.90;;;;;;5054376;28;20120;-64
2022/12/30 12:04:51;;;;;;;6.47;4.35;;;15.90;99.90;;;;;;5054212;28;20025;-64
2022/12/30 12:07:16;;;;;;;5.95;3.95;;;16.00;99.90;;;;;;5054521;28;20023;-64
2022/12/30 12:09:51;;;;;;;7.97;5.90;;;16.10;99.90;;;;;;5054120;28;20048;-64
2022/12/30 12:12:21;;;;;;;12.68;9.55;;;16.00;99.90;;;;;;5054860;28;20104;-64
2022/12/30 12:14:58;;;;;;;5.35;4.22;;;16.00;99.90;;;;;;5054247;28;20025;-64
2022/12/30 12:17:36;;;;;;;9.45;6.53;;;16.20;99.90;;;;;;5054927;28;20116;-64
2022/12/30 12:20:32;;;;;;;10.98;7.65;;;16.20;99.90;;;;;;5053241;28;20037;-64
2022/12/30 12:23:06;;;;;;;5.50;3.70;;;16.30;99.90;;;;;;5012208;28;20112;-64
2022/12/30 12:25:39;;;;;;;3.92;2.90;;;16.30;99.90;;;;;;5012677;28;20037;-63
2022/12/30 12:28:08;;;;;;;3.45;2.67;;;16.20;99.90;;;;;;5012310;28;20034;-64
2022/12/30 12:31:05;;;;;;;3.17;2.58;;;16.30;99.90;;;;;;5012348;28;20034;-63
2022/12/30 12:33:41;;;;;;;2.50;2.30;;;16.30;99.90;;;;;;5004050;28;20044;-63
2022/12/30 12:36:21;;;;;;;3.85;2.45;;;16.50;99.90;;;;;;5012034;28;20037;-63
2022/12/30 12:38:54;;;;;;;2.78;2.30;;;16.70;99.90;;;;;;5011868;28;20030;-63
2022/12/30 12:41:30;;;;;;;3.38;2.70;;;16.80;99.90;;;;;;5011858;28;20547;-63
2022/12/30 12:44:26;;;;;;;2.67;2.42;;;16.90;99.90;;;;;;5011937;28;20164;-63
2022/12/30 12:47:28;;;;;;;3.83;2.28;;;17.20;99.90;;;;;;5011589;28;20561;-63
2022/12/30 12:50:12;;;;;;;4.13;2.47;;;17.30;99.90;;;;;;5011783;28;20121;-63
2022/12/30 12:52:55;;;;;;;3.40;2.22;;;17.50;99.90;;;;;;5011727;28;20038;-63
2022/12/30 12:55:36;;;;;;;;;;;17.70;99.90;;;;;;5012106;28;20513;-63
2022/12/30 12:58:16;;;;;;;4.03;2.20;;;18.10;99.90;;;;;;5011911;28;19906;-63
2022/12/30 13:01:08;;;;;;;2.63;1.88;;;17.90;99.90;;;;;;5029707;28;20049;-63
2022/12/30 13:03:48;;;;;;;3.78;2.25;;;18.00;99.90;;;;;;5033097;28;20042;-63
2022/12/30 13:06:21;;;;;;;4.03;2.38;;;18.20;99.90;;;;;;5033494;28;20033;-63
2022/12/30 13:09:21;;;;;;;4.05;2.05;;;18.40;99.90;;;;;;5033383;28;20025;-63
2022/12/30 13:11:58;;;;;;;3.30;2.63;;;18.80;99.90;;;;;;5033664;28;20052;-63
2022/12/30 13:14:36;;;;;;;3.85;2.10;;;19.00;99.90;;;;;;5033271;28;20078;-63
2022/12/30 13:17:10;;;;;;;4.88;2.17;;;19.00;99.90;;;;;;5032945;28;20049;-63
2022/12/30 13:19:37;;;;;;;2.78;1.80;;;19.00;99.90;;;;;;5033031;28;20138;-63
2022/12/30 13:22:12;;;;;;;13.63;10.75;;;18.90;99.90;;;;;;5033401;28;20116;-63
2022/12/30 13:24:42;;;;;;;4.80;2.42;;;18.80;99.90;;;;;;5033034;28;20017;-63
2022/12/30 13:27:22;;;;;;;4.82;2.25;;;18.70;99.90;;;;;;5032971;28;20025;-63
2022/12/30 13:29:48;;;;;;;5.70;1.85;;;18.80;99.90;;;;;;5049739;28;20013;-63
2022/12/30 13:32:27;;;;;;;6.10;2.30;;;18.90;99.90;;;;;;5052265;28;20517;-63
2022/12/30 13:34:57;;;;;;;5.60;2.63;;;19.00;99.90;;;;;;5053327;28;20696;-63
2022/12/30 13:37:28;;;;;;;5.32;1.80;;;19.20;99.90;;;;;;5051548;28;20029;-63
2022/12/30 13:40:14;;;;;;;4.97;2.10;;;19.20;99.90;;;;;;5052311;28;20397;-63
2022/12/30 13:42:48;;;;;;;4.18;1.50;;;19.20;99.90;;;;;;5052634;28;20045;-63
2022/12/30 13:45:41;;;;;;;4.00;1.60;;;19.10;99.90;;;;;;5052941;28;20021;-63
2022/12/30 13:48:09;;;;;;;8.98;3.45;;;19.00;99.90;;;;;;5052740;28;20029;-63
2022/12/30 13:50:37;;;;;;;12.32;11.00;;;19.10;99.90;;;;;;5052947;28;20449;-63
2022/12/30 13:53:05;;;;;;;6.68;3.58;;;19.10;99.90;;;;;;5052701;28;20118;-63
2022/12/30 13:55:48;;;;;;;11.60;8.35;;;19.00;99.90;;;;;;5052688;28;20116;-63
2022/12/30 13:58:18;;;;;;;6.43;2.72;;;19.00;99.90;;;;;;5053049;28;20738;-63
2022/12/30 14:00:45;;;;;;;15.18;13.20;;;19.00;99.90;;;;;;5052195;28;20024;-63
2022/12/30 14:03:16;;;;;;;14.50;13.20;;;18.90;99.90;;;;;;5052242;28;20454;-63
2022/12/30 14:05:42;;;;;;;13.05;10.27;;;18.90;99.90;;;;;;5052343;28;20118;-63